Time;durP1;ratioP1;P1;durP2;ratioP2;P2;SDS_P1;SDS_P2;PMS_P1;PMS_P2;Temp;Humidity;BMP_temperature;BMP_pressure;BME280_temperature;BME280_humidity;BME280_pressure;Samples;Min_cycle;Max_cycle;Signal;HPM_P1;HPM_P2
2022/03/24 00:00:26;;;;;;;37.90;24.30;;;5.10;69.90;;;;;;5033183;28;20404;-70
2022/03/24 00:02:51;;;;;;;46.00;25.88;;;5.10;70.30;;;;;;5032912;28;20099;-70
2022/03/24 00:05:17;;;;;;;43.58;25.42;;;5.10;70.10;;;;;;5051024;28;20029;-70
2022/03/24 00:07:43;;;;;;;43.63;24.60;;;5.10;70.80;;;;;;5050272;28;20534;-71
2022/03/24 00:10:10;;;;;;;42.55;23.38;;;5.10;69.70;;;;;;5033073;28;20079;-70
2022/03/24 00:12:35;;;;;;;39.40;24.90;;;5.00;69.40;;;;;;5051187;28;20025;-70
2022/03/24 00:15:03;;;;;;;41.05;24.48;;;4.90;69.70;;;;;;5049983;28;20112;-71
2022/03/24 00:17:30;;;;;;;39.60;25.95;;;4.90;69.70;;;;;;5049110;28;20029;-70
2022/03/24 00:19:56;;;;;;;45.92;24.05;;;4.80;70.10;;;;;;5049800;28;20104;-70
2022/03/24 00:22:22;;;;;;;41.60;24.70;;;4.60;70.30;;;;;;5033575;28;20104;-71
2022/03/24 00:24:47;;;;;;;49.63;25.48;;;4.60;70.20;;;;;;5031871;28;20033;-70
2022/03/24 00:27:14;;;;;;;38.45;24.70;;;4.50;70.30;;;;;;5032411;28;20496;-69
2022/03/24 00:29:40;;;;;;;38.80;22.55;;;4.40;70.40;;;;;;5050593;28;20025;-70
2022/03/24 00:32:06;;;;;;;38.70;24.05;;;4.40;71.20;;;;;;5033064;28;20025;-70
2022/03/24 00:34:31;;;;;;;40.63;25.30;;;4.30;71.50;;;;;;5050735;28;20066;-69
2022/03/24 00:36:57;;;;;;;42.95;24.48;;;4.30;71.30;;;;;;5050707;28;20484;-69
2022/03/24 00:39:22;;;;;;;41.03;24.25;;;4.20;72.30;;;;;;5050172;28;20228;-70
2022/03/24 00:41:48;;;;;;;42.85;24.65;;;4.10;72.20;;;;;;5050519;28;20047;-70
2022/03/24 00:46:58;;;;;;;39.55;24.35;;;4.10;71.80;;;;;;4969307;28;20510;-74
2022/03/24 00:54:20;;;;;;;;;;;;;;;;;;;;;
2022/03/24 01:01:14;;;;;;;44.25;24.77;;;3.80;72.50;;;;;;4751113;30;20109;-78
2022/03/24 01:03:57;;;;;;;43.47;23.80;;;3.80;72.60;;;;;;4839306;29;20048;-77
2022/03/24 01:07:04;;;;;;;40.45;23.63;;;3.80;73.40;;;;;;4950944;28;20050;-77
2022/03/24 01:09:45;;;;;;;38.53;22.98;;;3.80;73.20;;;;;;4996667;28;20102;-78
2022/03/24 01:12:14;;;;;;;39.53;22.45;;;3.70;73.10;;;;;;4996404;28;20035;-79
2022/03/24 01:14:44;;;;;;;41.97;24.42;;;3.70;73.40;;;;;;4995439;28;20034;-77
2022/03/24 01:21:38;;;;;;;40.28;23.40;;;3.50;73.60;;;;;;4923404;29;20028;-79
2022/03/24 01:52:30;;;;;;;;;;;;;;;;;;;;;
2022/03/24 01:54:15;;;;;;;42.13;24.67;;;3.50;73.80;;;;;;5019330;28;20040;-75
2022/03/24 02:00:36;;;;;;;40.28;22.58;;;3.40;73.70;;;;;;5011349;23;20048;-70
2022/03/24 02:03:04;;;;;;;46.70;25.08;;;3.30;73.60;;;;;;5052650;28;20104;-69
2022/03/24 02:05:31;;;;;;;45.90;25.70;;;3.20;73.90;;;;;;5051724;28;20025;-70
2022/03/24 02:08:02;;;;;;;43.33;24.88;;;3.10;74.50;;;;;;5052782;28;20017;-68
2022/03/24 02:10:28;;;;;;;45.03;26.47;;;3.10;74.80;;;;;;5052860;28;20491;-67
2022/03/24 02:12:56;;;;;;;48.83;26.55;;;3.10;75.00;;;;;;5052664;28;20259;-70
2022/03/24 02:15:22;;;;;;;49.13;27.75;;;3.20;74.90;;;;;;5052630;28;20029;-68
2022/03/24 02:17:48;;;;;;;48.40;26.00;;;3.30;75.70;;;;;;5052271;28;20082;-68
2022/03/24 02:20:14;;;;;;;48.10;28.15;;;3.20;75.40;;;;;;5052728;28;20062;-68
2022/03/24 02:22:40;;;;;;;47.15;27.27;;;3.30;75.20;;;;;;5052542;28;20021;-70
2022/03/24 02:25:07;;;;;;;50.78;26.52;;;3.20;74.70;;;;;;5034579;28;20033;-69
2022/03/24 02:27:33;;;;;;;52.03;27.80;;;3.20;74.80;;;;;;5052532;28;20061;-68
2022/03/24 02:29:58;;;;;;;53.00;28.35;;;3.10;75.20;;;;;;5052464;28;20092;-69
2022/03/24 02:32:24;;;;;;;52.83;29.35;;;3.10;75.20;;;;;;5052303;28;20480;-69
2022/03/24 02:34:51;;;;;;;53.67;26.65;;;3.10;74.70;;;;;;5052378;28;20316;-69
2022/03/24 02:37:22;;;;;;;49.13;27.77;;;3.00;75.70;;;;;;5051894;28;20476;-68
2022/03/24 02:39:59;;;;;;;46.10;25.83;;;3.00;75.00;;;;;;5052253;28;20021;-69
2022/03/24 02:42:30;;;;;;;46.75;26.73;;;3.00;74.70;;;;;;5026265;28;20439;-68
2022/03/24 02:45:02;;;;;;;46.00;26.27;;;3.00;74.70;;;;;;5034143;28;20048;-69
2022/03/24 02:47:29;;;;;;;49.60;25.85;;;3.00;74.90;;;;;;5035975;28;20496;-70
2022/03/24 02:49:55;;;;;;;40.03;25.20;;;3.00;75.40;;;;;;5052015;28;20021;-70
2022/03/24 02:52:21;;;;;;;44.55;26.58;;;3.00;75.00;;;;;;5052169;28;20105;-69
2022/03/24 02:54:47;;;;;;;45.83;26.95;;;2.90;75.00;;;;;;5051989;28;20100;-67
2022/03/24 02:57:13;;;;;;;46.15;26.13;;;2.80;75.00;;;;;;5051679;28;20025;-69
2022/03/24 02:59:39;;;;;;;89.45;29.88;;;2.70;75.20;;;;;;5051694;28;20071;-69
2022/03/24 03:02:13;;;;;;;76.28;27.75;;;2.70;75.30;;;;;;5051984;28;20060;-68
2022/03/24 03:04:40;;;;;;;63.78;28.42;;;2.60;75.60;;;;;;5051925;28;20017;-69
2022/03/24 03:07:06;;;;;;;53.90;25.92;;;2.50;75.80;;;;;;5051541;28;20460;-67
2022/03/24 03:09:33;;;;;;;57.75;26.77;;;2.50;75.90;;;;;;5051725;28;20135;-67
2022/03/24 03:12:00;;;;;;;51.95;26.10;;;2.40;75.80;;;;;;5051690;28;20033;-67
2022/03/24 03:14:27;;;;;;;44.42;25.23;;;2.40;76.00;;;;;;5051998;28;20384;-69
2022/03/24 03:16:53;;;;;;;52.38;26.95;;;2.40;76.10;;;;;;5051533;28;20112;-69
2022/03/24 03:19:19;;;;;;;44.58;25.02;;;2.30;76.30;;;;;;5051146;28;20103;-67
2022/03/24 03:21:48;;;;;;;47.63;25.50;;;2.40;76.90;;;;;;5051534;28;20061;-68
2022/03/24 03:24:14;;;;;;;44.22;24.02;;;2.50;77.90;;;;;;5051579;28;20057;-68
2022/03/24 03:26:40;;;;;;;43.60;25.17;;;2.70;77.20;;;;;;5051316;28;20060;-67
2022/03/24 03:29:06;;;;;;;39.55;23.30;;;2.70;76.00;;;;;;5033276;28;20108;-68
2022/03/24 03:31:34;;;;;;;40.58;24.38;;;2.60;76.10;;;;;;5033514;28;20029;-68
2022/03/24 03:34:01;;;;;;;43.97;24.02;;;2.60;76.10;;;;;;5051401;28;20017;-68
2022/03/24 03:36:27;;;;;;;43.67;24.42;;;2.50;76.30;;;;;;5051351;28;20061;-68
2022/03/24 03:38:53;;;;;;;40.17;23.42;;;2.50;76.30;;;;;;5051006;28;20021;-68
2022/03/24 03:41:22;;;;;;;47.28;26.10;;;2.40;76.80;;;;;;5051233;28;20043;-68
2022/03/24 03:43:48;;;;;;;43.25;24.58;;;2.30;76.70;;;;;;5051247;28;20025;-69
2022/03/24 03:46:15;;;;;;;47.75;26.85;;;2.20;76.80;;;;;;5051469;28;20036;-68
2022/03/24 03:48:41;;;;;;;50.80;25.67;;;2.10;77.20;;;;;;5021587;28;20033;-69
2022/03/24 03:51:08;;;;;;;46.13;26.48;;;2.10;77.30;;;;;;5051015;28;20436;-69
2022/03/24 03:53:34;;;;;;;42.67;23.42;;;2.10;78.00;;;;;;5051072;28;20064;-68
2022/03/24 03:56:02;;;;;;;45.83;25.52;;;2.10;77.90;;;;;;5049265;28;20029;-69
2022/03/24 03:58:28;;;;;;;45.15;26.38;;;2.00;78.10;;;;;;5049972;28;20021;-68
2022/03/24 04:00:53;;;;;;;47.55;25.52;;;2.00;77.60;;;;;;5033035;28;20809;-69
2022/03/24 04:03:19;;;;;;;42.13;23.08;;;2.00;77.90;;;;;;5050606;28;20032;-69
2022/03/24 04:05:45;;;;;;;43.33;25.27;;;1.90;78.20;;;;;;5050985;28;20037;-68
2022/03/24 04:08:11;;;;;;;47.05;25.10;;;1.90;77.90;;;;;;5050596;28;20104;-69
2022/03/24 04:10:38;;;;;;;44.13;24.08;;;1.80;77.80;;;;;;5050893;28;20032;-68
2022/03/24 04:13:05;;;;;;;45.00;24.38;;;1.80;77.70;;;;;;5051137;28;20360;-69
2022/03/24 04:15:31;;;;;;;48.03;25.80;;;1.70;77.70;;;;;;5051121;28;20028;-69
2022/03/24 04:17:57;;;;;;;42.08;24.52;;;1.70;77.90;;;;;;5050688;28;20036;-69
2022/03/24 04:20:23;;;;;;;44.90;24.63;;;1.60;78.10;;;;;;5050809;28;20461;-69
2022/03/24 04:22:52;;;;;;;47.50;25.55;;;1.60;78.50;;;;;;5050782;28;20136;-68
2022/03/24 04:25:20;;;;;;;46.50;25.60;;;1.50;78.30;;;;;;5050904;28;20037;-68
2022/03/24 04:27:46;;;;;;;43.78;25.45;;;1.50;78.50;;;;;;5050624;28;20025;-68
2022/03/24 04:30:12;;;;;;;42.40;25.85;;;1.50;78.40;;;;;;5054092;28;20124;-68
2022/03/24 04:32:38;;;;;;;45.55;24.85;;;1.50;78.40;;;;;;5054938;28;20048;-68
2022/03/24 04:35:05;;;;;;;44.13;25.08;;;1.50;78.50;;;;;;5054917;28;20448;-68
2022/03/24 04:37:31;;;;;;;49.72;26.45;;;1.50;78.40;;;;;;5054288;28;20009;-68
2022/03/24 04:39:56;;;;;;;45.10;24.88;;;1.40;78.50;;;;;;5054442;28;20079;-69
2022/03/24 04:42:22;;;;;;;43.55;25.65;;;1.40;78.50;;;;;;5020135;28;20459;-68
2022/03/24 04:44:47;;;;;;;44.85;24.67;;;1.40;78.50;;;;;;5036534;28;20511;-68
2022/03/24 04:47:13;;;;;;;46.72;25.27;;;1.40;78.50;;;;;;5053511;28;20112;-68
2022/03/24 04:49:39;;;;;;;42.50;23.38;;;1.40;78.80;;;;;;5054713;28;20070;-69
2022/03/24 04:52:05;;;;;;;44.72;24.67;;;1.40;78.70;;;;;;5054123;28;20427;-68
2022/03/24 04:54:30;;;;;;;46.83;25.00;;;1.40;78.70;;;;;;5054302;28;20064;-69
2022/03/24 04:56:57;;;;;;;50.08;26.50;;;1.40;78.80;;;;;;5054071;28;20457;-69
2022/03/24 04:59:22;;;;;;;47.58;25.55;;;1.50;78.90;;;;;;5035865;28;20017;-69
2022/03/24 05:01:48;;;;;;;39.97;24.20;;;1.40;78.60;;;;;;5054103;28;20451;-69
2022/03/24 05:04:15;;;;;;;45.72;25.50;;;1.40;78.60;;;;;;5054140;28;20021;-70
2022/03/24 05:06:41;;;;;;;45.10;24.95;;;1.40;78.60;;;;;;5053873;28;20032;-70
2022/03/24 05:09:07;;;;;;;44.35;24.63;;;1.40;78.30;;;;;;5054030;28;20312;-69
2022/03/24 05:11:32;;;;;;;51.22;25.83;;;1.40;78.70;;;;;;5053494;28;20418;-69
2022/03/24 05:13:58;;;;;;;50.38;27.30;;;1.40;78.50;;;;;;5052862;28;20546;-69
2022/03/24 05:16:24;;;;;;;40.80;23.83;;;1.50;78.30;;;;;;5052531;28;20035;-69
2022/03/24 05:18:49;;;;;;;45.15;24.98;;;1.50;78.20;;;;;;5034432;28;20028;-70
2022/03/24 05:21:15;;;;;;;50.22;23.73;;;1.60;77.90;;;;;;5052460;28;20047;-69
2022/03/24 05:23:41;;;;;;;43.17;24.83;;;1.70;78.00;;;;;;5053473;28;20036;-70
2022/03/24 05:26:07;;;;;;;43.90;24.55;;;;;;;;;;5053336;28;20143;-69
2022/03/24 05:28:33;;;;;;;44.97;25.23;;;;;;;;;;5053618;28;20052;-70
2022/03/24 05:30:59;;;;;;;41.35;23.13;;;;;;;;;;5053735;28;20056;-69
2022/03/24 05:33:25;;;;;;;41.58;22.45;;;;;;;;;;5035978;28;20392;-70
2022/03/24 05:35:51;;;;;;;36.13;21.75;;;;;;;;;;5052887;28;20017;-70
2022/03/24 05:38:17;;;;;;;39.25;22.98;;;;;;;;;;5051674;28;20028;-69
2022/03/24 05:40:43;;;;;;;37.80;22.10;;;;;;;;;;5052360;28;20025;-70
2022/03/24 05:43:10;;;;;;;41.95;23.48;;;;;;;;;;5052281;28;20029;-70
2022/03/24 05:45:36;;;;;;;36.55;22.02;;;;;;;;;;5052334;28;20040;-69
2022/03/24 05:48:02;;;;;;;35.60;21.25;;;;;;;;;;5051878;28;20028;-69
2022/03/24 05:50:29;;;;;;;35.00;22.70;;;;;;;;;;5034281;28;20395;-69
2022/03/24 05:52:55;;;;;;;32.97;21.23;;;;;;;;;;5053726;28;20107;-69
2022/03/24 05:55:23;;;;;;;32.80;21.20;;;;;;;;;;5052872;28;20518;-69
2022/03/24 05:57:49;;;;;;;31.77;20.55;;;;;;;;;;5050786;28;20029;-69
2022/03/24 06:00:15;;;;;;;35.45;21.58;;;10.00;50.70;;;;;;5046224;28;20026;-69
2022/03/24 06:02:41;;;;;;;35.13;22.27;;;10.10;50.70;;;;;;5050329;28;20025;-69
2022/03/24 06:05:11;;;;;;;36.08;23.30;;;10.70;48.60;;;;;;5046433;28;20404;-69
2022/03/24 06:07:36;;;;;;;34.42;22.20;;;11.20;47.10;;;;;;5049179;28;20100;-68
2022/03/24 06:10:03;;;;;;;35.08;22.33;;;11.60;45.80;;;;;;5052978;28;20449;-68
2022/03/24 06:12:28;;;;;;;34.15;22.25;;;12.00;44.20;;;;;;5052727;28;20028;-70
2022/03/24 06:14:54;;;;;;;31.75;20.98;;;12.70;42.50;;;;;;5053010;28;20021;-69
2022/03/24 06:17:20;;;;;;;30.77;22.00;;;13.50;41.30;;;;;;5054189;28;20047;-70
2022/03/24 06:19:50;;;;;;;37.92;22.35;;;14.10;39.50;;;;;;5055031;28;20039;-70
2022/03/24 06:22:16;;;;;;;34.10;21.25;;;14.00;38.90;;;;;;5036267;28;20029;-70
2022/03/24 06:24:42;;;;;;;33.20;21.60;;;14.40;38.50;;;;;;5054924;28;20084;-71
2022/03/24 06:27:08;;;;;;;30.92;22.27;;;14.50;38.30;;;;;;5053895;28;20112;-71
2022/03/24 06:29:34;;;;;;;37.17;23.77;;;14.30;37.40;;;;;;5052593;28;20040;-73
2022/03/24 06:32:00;;;;;;;34.05;23.20;;;14.30;37.80;;;;;;5040732;28;20021;-73
2022/03/24 06:34:26;;;;;;;32.40;22.98;;;14.80;36.80;;;;;;5054693;28;20099;-72
2022/03/24 06:36:54;;;;;;;33.83;23.65;;;13.80;38.30;;;;;;5035785;28;20124;-73
2022/03/24 06:39:20;;;;;;;33.25;25.25;;;13.40;39.10;;;;;;5053100;28;20085;-71
2022/03/24 06:41:46;;;;;;;32.30;23.80;;;13.30;40.00;;;;;;5053461;28;20032;-69
2022/03/24 06:44:12;;;;;;;34.90;24.23;;;13.20;40.00;;;;;;5052094;28;20021;-69
2022/03/24 06:46:38;;;;;;;34.08;23.42;;;13.00;40.80;;;;;;5032999;28;20037;-70
2022/03/24 06:49:05;;;;;;;32.72;23.42;;;13.30;40.20;;;;;;5051764;28;20025;-69
2022/03/24 06:51:31;;;;;;;33.33;23.45;;;14.30;38.40;;;;;;5035107;28;20021;-70
2022/03/24 06:53:57;;;;;;;38.45;24.23;;;14.70;37.40;;;;;;5050131;28;20032;-70
2022/03/24 06:56:23;;;;;;;31.90;23.42;;;14.00;38.40;;;;;;5050810;28;20441;-69
2022/03/24 06:58:49;;;;;;;34.30;25.20;;;14.30;38.00;;;;;;5050468;28;20031;-69
2022/03/24 07:01:15;;;;;;;37.35;26.25;;;13.70;39.10;;;;;;5050981;28;20135;-71
2022/03/24 07:03:41;;;;;;;38.25;24.35;;;13.90;39.20;;;;;;5034765;28;20023;-72
2022/03/24 07:06:06;;;;;;;36.90;24.40;;;13.60;39.20;;;;;;5052086;28;20547;-71
2022/03/24 07:08:32;;;;;;;41.10;26.55;;;14.00;39.10;;;;;;5049441;28;20033;-70
2022/03/24 07:10:58;;;;;;;36.40;23.38;;;13.40;39.50;;;;;;5051365;28;20021;-71
2022/03/24 07:13:24;;;;;;;39.92;25.38;;;14.10;39.10;;;;;;5051965;28;20048;-71
2022/03/24 07:15:49;;;;;;;38.08;25.52;;;14.60;37.60;;;;;;5051788;28;20036;-73
2022/03/24 07:18:15;;;;;;;32.38;24.27;;;14.20;37.80;;;;;;5051390;28;20420;-72
2022/03/24 07:20:42;;;;;;;37.33;25.02;;;14.60;37.70;;;;;;5048912;28;20489;-70
2022/03/24 07:23:08;;;;;;;36.20;26.25;;;15.20;36.30;;;;;;5049594;28;20021;-72
2022/03/24 07:25:36;;;;;;;37.67;24.40;;;14.90;36.80;;;;;;5051237;28;20476;-72
2022/03/24 07:28:04;;;;;;;36.83;23.88;;;15.00;36.20;;;;;;5033038;28;20028;-72
2022/03/24 07:30:30;;;;;;;39.40;25.55;;;15.70;35.40;;;;;;5360383;23;20171;-72
2022/03/24 07:32:57;;;;;;;36.40;24.55;;;15.50;35.10;;;;;;5049454;28;20074;-71
2022/03/24 07:35:26;;;;;;;33.85;24.88;;;15.90;34.80;;;;;;5048821;28;20029;-72
2022/03/24 07:37:52;;;;;;;38.83;25.13;;;16.90;32.80;;;;;;5049471;28;20522;-71
2022/03/24 07:40:18;;;;;;;34.03;24.50;;;17.60;32.10;;;;;;5047548;28;20415;-70
2022/03/24 07:42:47;;;;;;;36.92;25.30;;;18.00;31.60;;;;;;5043465;28;20017;-70
2022/03/24 07:45:13;;;;;;;36.13;25.63;;;18.20;30.70;;;;;;5048934;28;20052;-71
2022/03/24 07:48:16;;;;;;;39.10;24.23;;;18.60;30.50;;;;;;5049650;28;20094;-73
2022/03/24 07:50:46;;;;;;;43.00;25.67;;;18.10;30.10;;;;;;5049375;28;20029;-74
2022/03/24 07:53:12;;;;;;;40.33;25.05;;;18.50;30.00;;;;;;5047603;28;20021;-72
2022/03/24 07:55:40;;;;;;;39.35;25.90;;;19.00;29.20;;;;;;5051332;28;20527;-72
2022/03/24 07:58:06;;;;;;;41.63;27.10;;;18.90;29.30;;;;;;5050933;28;20036;-72
2022/03/24 08:00:31;;;;;;;34.40;25.10;;;18.50;30.40;;;;;;5055787;23;20046;-74
2022/03/24 08:02:57;;;;;;;34.65;26.13;;;17.00;32.10;;;;;;5023091;28;20021;-70
2022/03/24 08:05:23;;;;;;;42.53;26.33;;;15.60;34.50;;;;;;5017224;28;20133;-74
2022/03/24 08:07:48;;;;;;;39.53;25.65;;;14.90;36.10;;;;;;5015506;28;20033;-71
2022/03/24 08:10:14;;;;;;;37.10;25.92;;;15.30;35.00;;;;;;5007703;28;20049;-72
2022/03/24 08:12:40;;;;;;;38.03;26.05;;;14.70;36.70;;;;;;4994631;28;20053;-73
2022/03/24 08:15:05;;;;;;;38.92;25.73;;;14.80;36.70;;;;;;4994922;28;20410;-76
2022/03/24 08:17:31;;;;;;;43.95;24.58;;;15.30;35.70;;;;;;4994283;28;20037;-72
2022/03/24 08:19:57;;;;;;;42.30;26.45;;;16.20;34.80;;;;;;5026940;23;20084;-76
2022/03/24 08:22:23;;;;;;;36.83;24.52;;;15.90;34.60;;;;;;5035027;28;20045;-73
2022/03/24 08:24:49;;;;;;;37.83;25.58;;;15.60;35.40;;;;;;5035405;28;20084;-76
2022/03/24 08:27:15;;;;;;;40.55;25.65;;;16.00;35.20;;;;;;5035739;28;20061;-77
2022/03/24 08:29:41;;;;;;;39.10;25.13;;;16.70;33.40;;;;;;5029480;28;20056;-75
2022/03/24 08:32:07;;;;;;;44.92;26.60;;;15.50;34.70;;;;;;5013311;28;20010;-74
2022/03/24 08:34:32;;;;;;;40.30;26.40;;;15.00;36.00;;;;;;5048875;23;20506;-71
2022/03/24 08:36:58;;;;;;;43.22;26.85;;;15.60;35.00;;;;;;5020370;28;20061;-68
2022/03/24 08:39:23;;;;;;;48.42;31.33;;;15.20;35.90;;;;;;5034766;28;20034;-71
2022/03/24 08:41:49;;;;;;;43.92;25.35;;;16.00;35.50;;;;;;5033296;28;20049;-71
2022/03/24 08:44:14;;;;;;;40.30;25.63;;;16.50;34.10;;;;;;5015437;28;20029;-71
2022/03/24 08:46:40;;;;;;;39.22;27.83;;;17.50;33.00;;;;;;5032233;28;20655;-71
2022/03/24 08:49:06;;;;;;;44.83;30.65;;;18.10;31.80;;;;;;5032324;28;20018;-71
2022/03/24 08:51:31;;;;;;;37.35;26.90;;;18.70;31.30;;;;;;5032656;28;20028;-71
2022/03/24 08:53:59;;;;;;;52.65;32.90;;;18.80;30.60;;;;;;5032703;28;20041;-71
2022/03/24 08:56:25;;;;;;;48.17;29.67;;;;;;;;;;5033119;28;20026;-70
2022/03/24 08:58:51;;;;;;;47.70;29.70;;;;;;;;;;5032964;28;20501;-71
2022/03/24 09:01:19;;;;;;;44.15;29.08;;;18.50;30.90;;;;;;5016040;28;20026;-70
2022/03/24 09:03:45;;;;;;;41.88;29.38;;;17.50;32.60;;;;;;5034110;28;20039;-71
2022/03/24 09:06:10;;;;;;;44.63;28.67;;;16.40;34.30;;;;;;5033996;28;20034;-71
2022/03/24 09:08:36;;;;;;;46.22;28.10;;;15.40;36.60;;;;;;5034010;28;20031;-71
2022/03/24 09:11:02;;;;;;;45.05;30.17;;;14.70;38.40;;;;;;5034455;28;20528;-71
2022/03/24 09:13:28;;;;;;;47.03;28.52;;;14.20;39.30;;;;;;5034565;28;20101;-71
2022/03/24 09:15:53;;;;;;;56.00;31.67;;;14.80;39.20;;;;;;5033723;28;20057;-71
2022/03/24 09:18:19;;;;;;;42.97;29.08;;;15.60;38.60;;;;;;5033865;28;20041;-71
2022/03/24 09:20:45;;;;;;;45.42;28.90;;;16.00;37.20;;;;;;5034542;28;20547;-71
2022/03/24 09:23:11;;;;;;;50.92;30.17;;;16.60;36.00;;;;;;5032674;28;20087;-71
2022/03/24 09:25:38;;;;;;;43.20;30.67;;;16.40;36.00;;;;;;5031823;28;20416;-71
2022/03/24 09:28:04;;;;;;;50.47;29.73;;;16.00;36.90;;;;;;5014117;28;20026;-72
2022/03/24 09:30:30;;;;;;;42.58;28.85;;;16.60;36.60;;;;;;5013997;28;20060;-72
2022/03/24 09:32:55;;;;;;;45.78;30.33;;;16.70;35.90;;;;;;5015831;28;20056;-71
2022/03/24 09:35:21;;;;;;;54.00;36.20;;;16.40;36.60;;;;;;5033419;28;20115;-71
2022/03/24 09:37:47;;;;;;;52.70;32.95;;;16.10;38.50;;;;;;5033468;28;20032;-71
2022/03/24 09:40:13;;;;;;;55.47;32.33;;;16.90;37.00;;;;;;5033460;28;20025;-71
2022/03/24 09:42:39;;;;;;;51.65;33.88;;;17.30;36.70;;;;;;5033984;28;20026;-71
2022/03/24 09:45:07;;;;;;;42.83;30.10;;;17.90;35.60;;;;;;5033920;28;20340;-71
2022/03/24 09:47:33;;;;;;;51.55;30.58;;;17.80;33.80;;;;;;5033237;28;20034;-71
2022/03/24 09:49:59;;;;;;;44.28;30.17;;;17.40;34.50;;;;;;5015665;28;20025;-71
2022/03/24 09:52:25;;;;;;;48.95;32.95;;;16.60;35.80;;;;;;5033536;28;20034;-70
2022/03/24 09:54:51;;;;;;;45.10;30.80;;;16.30;36.70;;;;;;5033049;28;20556;-70
2022/03/24 09:57:17;;;;;;;37.58;26.58;;;16.30;35.50;;;;;;5032973;28;20025;-70
2022/03/24 09:59:44;;;;;;;49.17;33.55;;;16.50;33.50;;;;;;5033333;28;20105;-70
2022/03/24 10:02:10;;;;;;;45.30;30.02;;;16.60;36.40;;;;;;5033474;28;20441;-70
2022/03/24 10:04:53;;;;;;;47.22;31.88;;;16.80;35.20;;;;;;5015180;28;20059;-70
2022/03/24 10:07:23;;;;;;;42.88;28.23;;;17.00;35.20;;;;;;5014836;28;20030;-69
2022/03/24 10:09:50;;;;;;;43.28;27.30;;;16.80;34.60;;;;;;5033119;28;20017;-71
2022/03/24 10:12:23;;;;;;;47.45;27.33;;;16.60;33.90;;;;;;5033513;28;20465;-70
2022/03/24 10:15:03;;;;;;;47.50;31.45;;;16.30;34.70;;;;;;5033189;28;20485;-68
2022/03/24 10:17:30;;;;;;;54.90;30.15;;;16.40;35.40;;;;;;5032676;28;20396;-70
2022/03/24 10:20:08;;;;;;;52.30;33.08;;;16.40;36.30;;;;;;5015431;28;20025;-70
2022/03/24 10:22:36;;;;;;;49.47;28.70;;;16.30;35.30;;;;;;5033100;28;20029;-70
2022/03/24 10:25:05;;;;;;;38.92;26.92;;;16.10;35.30;;;;;;5032894;28;20037;-71
2022/03/24 10:27:31;;;;;;;50.00;30.85;;;15.90;34.20;;;;;;5031271;28;20382;-70
2022/03/24 10:29:59;;;;;;;39.83;28.33;;;15.30;36.40;;;;;;5032634;28;20104;-70
2022/03/24 10:32:33;;;;;;;48.28;28.60;;;15.40;37.00;;;;;;5032656;28;20064;-70
2022/03/24 10:35:11;;;;;;;44.05;27.63;;;15.40;36.10;;;;;;5014753;28;20037;-71
2022/03/24 10:37:37;;;;;;;61.72;33.20;;;15.40;36.80;;;;;;5032091;28;20396;-70
2022/03/24 10:40:07;;;;;;;47.88;28.50;;;15.50;37.80;;;;;;5032570;28;20389;-70
2022/03/24 10:42:36;;;;;;;48.78;30.88;;;15.40;35.90;;;;;;5032494;28;20022;-71
2022/03/24 10:45:17;;;;;;;44.42;28.63;;;15.20;37.20;;;;;;5014451;28;20143;-70
2022/03/24 10:47:46;;;;;;;58.20;35.95;;;15.20;36.60;;;;;;5032170;28;20025;-69
2022/03/24 10:50:39;;;;;;;49.05;28.90;;;15.40;38.80;;;;;;5032479;28;20503;-70
2022/03/24 10:53:12;;;;;;;45.45;26.90;;;15.30;37.50;;;;;;5032801;28;20056;-70
2022/03/24 10:55:44;;;;;;;48.42;29.70;;;15.50;37.00;;;;;;5032676;28;20045;-71
2022/03/24 10:58:11;;;;;;;;;;;15.50;37.10;;;;;;5033031;28;20068;-71
2022/03/24 11:00:40;;;;;;;42.97;27.75;;;15.50;36.90;;;;;;5032496;28;19911;-71
2022/03/24 11:03:07;;;;;;;48.03;26.70;;;15.20;35.40;;;;;;5032265;28;20026;-70
2022/03/24 11:05:33;;;;;;;45.10;26.25;;;15.00;36.10;;;;;;5014723;28;20021;-70
2022/03/24 11:07:59;;;;;;;45.97;28.25;;;14.70;36.40;;;;;;5031834;28;20062;-70
2022/03/24 11:10:25;;;;;;;55.00;28.13;;;14.80;37.10;;;;;;5032247;28;20036;-68
2022/03/24 11:12:54;;;;;;;52.97;30.30;;;15.00;37.50;;;;;;5032446;28;20033;-71
2022/03/24 11:15:20;;;;;;;44.42;27.02;;;15.20;38.30;;;;;;5032028;28;20060;-70
2022/03/24 11:17:47;;;;;;;35.97;23.73;;;15.30;34.90;;;;;;5031639;28;20021;-71
2022/03/24 11:20:15;;;;;;;43.80;27.23;;;15.20;34.90;;;;;;5032158;28;20105;-69
2022/03/24 11:22:47;;;;;;;45.47;28.30;;;15.00;36.10;;;;;;5032786;28;20412;-71
2022/03/24 11:25:13;;;;;;;46.63;30.30;;;15.10;37.00;;;;;;5033283;28;20025;-71
2022/03/24 11:27:39;;;;;;;45.15;26.63;;;15.30;36.70;;;;;;5032198;28;20025;-71
2022/03/24 11:30:08;;;;;;;43.50;25.73;;;15.50;36.50;;;;;;5032312;28;20021;-71
2022/03/24 11:32:37;;;;;;;34.53;21.83;;;15.50;34.60;;;;;;5031882;28;20026;-70
2022/03/24 11:35:06;;;;;;;34.67;22.30;;;15.50;33.20;;;;;;5031366;28;20386;-70
2022/03/24 11:37:33;;;;;;;35.58;22.67;;;15.50;32.90;;;;;;5013392;28;20029;-70
2022/03/24 11:40:25;;;;;;;37.40;23.52;;;15.40;33.20;;;;;;5031613;28;20071;-70
2022/03/24 11:42:55;;;;;;;35.30;22.60;;;15.10;33.20;;;;;;5014076;28;20036;-70
2022/03/24 11:45:32;;;;;;;37.45;23.63;;;15.00;33.60;;;;;;5013862;28;20715;-71
2022/03/24 11:48:09;;;;;;;28.77;19.17;;;15.00;33.80;;;;;;5031427;28;20031;-71
2022/03/24 11:50:36;;;;;;;30.65;18.52;;;15.20;30.70;;;;;;5031911;28;20076;-70
2022/03/24 11:53:19;;;;;;;29.92;19.00;;;15.20;30.00;;;;;;5031556;28;20048;-69
2022/03/24 11:56:03;;;;;;;28.90;18.10;;;15.00;30.50;;;;;;5031932;28;20511;-72
2022/03/24 11:58:38;;;;;;;37.13;22.20;;;15.00;28.60;;;;;;5031405;28;20021;-70
2022/03/24 12:01:19;;;;;;;30.25;18.85;;;15.30;30.80;;;;;;5031685;28;20025;-70
2022/03/24 12:04:01;;;;;;;30.17;19.30;;;15.40;27.90;;;;;;5031498;28;20029;-70
2022/03/24 12:06:42;;;;;;;25.08;18.00;;;15.50;28.50;;;;;;5031716;28;20026;-70
2022/03/24 12:09:15;;;;;;;30.25;20.10;;;15.70;28.10;;;;;;5031755;28;20485;-71
2022/03/24 12:11:44;;;;;;;36.05;23.70;;;15.60;26.60;;;;;;5031786;28;20034;-72
2022/03/24 12:14:36;;;;;;;29.92;20.25;;;15.70;29.60;;;;;;5031748;28;20113;-71
2022/03/24 12:17:15;;;;;;;;;;;15.70;29.00;;;;;;5032115;28;20105;-69
2022/03/24 12:19:50;;;;;;;35.33;20.67;;;15.80;29.50;;;;;;5031674;28;19913;-69
2022/03/24 12:22:25;;;;;;;34.17;21.73;;;15.90;28.50;;;;;;5031489;28;20564;-71
2022/03/24 12:25:00;;;;;;;32.83;19.60;;;15.90;28.60;;;;;;5031405;28;20026;-72
2022/03/24 12:27:53;;;;;;;31.10;19.92;;;15.80;28.00;;;;;;5030857;28;20412;-70
2022/03/24 12:30:19;;;;;;;38.00;23.60;;;15.80;30.10;;;;;;5031667;28;20664;-69
2022/03/24 12:33:05;;;;;;;33.03;20.20;;;15.70;29.40;;;;;;5013729;28;20520;-70
2022/03/24 12:35:46;;;;;;;32.97;20.08;;;15.50;28.50;;;;;;5031343;28;20033;-70
2022/03/24 12:38:23;;;;;;;36.97;23.67;;;15.40;28.60;;;;;;5031216;28;20477;-71
2022/03/24 12:41:15;;;;;;;29.73;19.80;;;15.60;29.50;;;;;;5031615;28;20049;-71
2022/03/24 12:43:43;;;;;;;30.85;20.85;;;15.40;28.20;;;;;;5031750;28;20386;-70
2022/03/24 12:46:33;;;;;;;29.98;20.73;;;15.30;29.00;;;;;;5031126;28;20481;-70
2022/03/24 12:49:10;;;;;;;32.53;20.52;;;15.50;28.80;;;;;;5031682;28;20025;-70
2022/03/24 12:52:04;;;;;;;37.20;20.98;;;15.40;28.40;;;;;;5034727;28;20044;-70
2022/03/24 12:54:40;;;;;;;38.53;20.95;;;15.40;28.90;;;;;;5017131;28;20453;-70
2022/03/24 12:57:34;;;;;;;33.88;21.27;;;15.40;28.70;;;;;;5034817;28;20029;-71
2022/03/24 13:00:02;;;;;;;34.17;21.48;;;15.60;28.50;;;;;;5034732;28;20026;-70
2022/03/24 13:02:28;;;;;;;35.00;21.67;;;15.40;28.70;;;;;;5016816;28;20025;-71
2022/03/24 13:04:54;;;;;;;33.65;22.67;;;15.50;28.80;;;;;;5034348;28;20599;-71
2022/03/24 13:07:27;;;;;;;32.42;21.83;;;15.30;29.20;;;;;;5034378;28;20055;-71
2022/03/24 13:10:04;;;;;;;33.38;22.85;;;15.40;29.50;;;;;;5016598;28;20032;-71
2022/03/24 13:12:30;;;;;;;35.92;23.80;;;15.30;29.30;;;;;;5035275;28;20022;-75
2022/03/24 13:14:56;;;;;;;39.47;23.75;;;15.40;29.80;;;;;;5021958;28;20469;-70
2022/03/24 13:17:22;;;;;;;31.80;21.65;;;15.60;29.90;;;;;;5013676;28;20033;-70
2022/03/24 13:19:50;;;;;;;35.75;23.48;;;15.70;30.10;;;;;;5014467;28;20028;-70
2022/03/24 13:22:17;;;;;;;34.20;22.33;;;15.90;29.80;;;;;;4997256;28;20077;-71
2022/03/24 13:24:53;;;;;;;35.45;22.77;;;15.80;29.10;;;;;;5014603;28;20108;-70
2022/03/24 13:27:20;;;;;;;33.10;21.67;;;15.70;29.30;;;;;;5013431;28;20156;-70
2022/03/24 13:29:46;;;;;;;38.67;23.67;;;15.70;29.30;;;;;;5014438;28;20060;-70
2022/03/24 13:32:17;;;;;;;36.10;22.73;;;15.70;29.20;;;;;;5014539;28;20022;-70